Ana Sayfa
METAR-TAF:

METAR-TAF

Havaalanları :

Gran Canaria Havalimanı

Gran Canaria, İspanya

Enlem: 27-56N, Boylam: 015-23W, yükseklik: 23 m

Güncel hava durumu gözlemi

Rapor saat 05:00 UTC de 15 dakika önce yapıldı.
Rüzgar kuzeydan 18 kt
Sıcaklık 18°C
Nem 68%
Basınç 1024 hPa
Görüş mesafesi 10 km veya daha fazla
2500 ft yükseklikte az bulutlu
3500 ft yükseklikte parçalı çok bulutlu

METAR: GCLP 190500Z 01018KT 9999 FEW025 BKN035 18/12 Q1024 NOSIG

Saat: 05:15 (05:15 UTC)

Tahmin

Rapor saat 02:00 UTC de 3 saat ve 15 dakika önce yapıldı.
Ayın 19'si saat 03 UTC'den ayın 20'si saat 03 UTC'ye kadar geçerli Tahmin
Rüzgar kuzeydan 20 kt
Görüş mesafesi 10 km veya daha fazla
3000 ft yükseklikte parçalı çok bulutlu
Olasılık 30% :
Geçici
ayın 19'si saat 12 UTC'den ayın 19'si saat 20 UTC'ye kadar
Rüzgar kuzeydan 23 kt ve 33 kt'a kadar ani rüzgarlar

TAF: GCLP 190200Z 1903/2003 01020KT 9999 BKN030 TX21/1914Z TN16/1906Z PROB30 TEMPO 1912/1920 01023G33KT

4.000'den fazla havaalanı için hava durumu gözlemleri ve tahminleri (METAR ve TAF raporları).

Kullanılabilir istasyonlar harita üzerinde sarı ve kırmızı noktalarla gösterilir.

İstasyonun adını görmek için fareyi noktanın üzerinde gezdirin.

Sonrasında hava gözlem ve tahminlerini görmek için tıklayın.

Haritayı değiştirmek için: yaklaştırmak için siyah artı işaretli yeşil düğmeye ve uzaklaştırmak için de eksi işaretli düğmeye hızla tıklayın; bitişik haritalar için yeşil okları kullanın.


METAR-TAF: